Danali, Honduras
Current Conditions -  °F | °C
As of 8:00 PM on Thursday 20 Nov 2014 (Local Time) from MHTG Reporting Station
Few Clouds Few Clouds  
Wind Chill: 68°   Ceiling: Unl
Heat Index: 68°   Visibility: 6mi
Dew Point: 66°   Wind: 3mph
Humidity: 94%   Direction: 20°NNE
Pressure: 30.09"   Gusts: NA
Location:  14.02°N, 86.3°W
Report Text: MHTG 210200Z 02003KT 9999 FEW012 20/19 Q1019 A2009 NOSIG
Loading
Personal Weather Stations






























Interactive Weather Map New forecast layout! Learn more

10-Day Weather Forecast

Advertisements
Track Severe Weather on mobile